createdAt,value
2022-09-28T00:00:09.292Z,55.31
2022-09-28T00:02:43.328Z,55.70
2022-09-28T00:05:14.119Z,55.62
2022-09-28T00:07:45.319Z,55.13
2022-09-28T00:10:15.571Z,56.31
2022-09-28T00:12:45.844Z,56.10
2022-09-28T00:15:16.131Z,55.71
2022-09-28T00:17:47.058Z,55.35
2022-09-28T00:20:18.536Z,55.64
2022-09-28T00:22:49.321Z,55.47
2022-09-28T00:25:20.753Z,55.97
2022-09-28T00:27:54.620Z,55.40
2022-09-28T00:30:26.272Z,55.92
2022-09-28T00:32:57.113Z,55.83
2022-09-28T00:35:27.460Z,55.82
2022-09-28T00:37:57.656Z,55.56
2022-09-28T00:40:27.629Z,55.43
2022-09-28T00:42:58.068Z,55.36
2022-09-28T00:45:29.332Z,55.04
2022-09-28T00:48:01.707Z,55.26
2022-09-28T00:50:38.331Z,54.99
2022-09-28T00:53:23.275Z,54.51
2022-09-28T00:56:04.940Z,54.83
2022-09-28T00:58:43.603Z,54.55
2022-09-28T01:01:14.979Z,55.30
2022-09-28T01:03:50.210Z,55.22
2022-09-28T01:06:28.838Z,55.15
2022-09-28T01:09:04.481Z,54.23
2022-09-28T01:11:36.937Z,54.33
2022-09-28T01:14:12.411Z,54.01
2022-09-28T01:17:10.215Z,53.44
2022-09-28T01:20:10.739Z,53.15
2022-09-28T01:23:15.162Z,53.19
2022-09-28T01:26:19.482Z,53.06
2022-09-28T01:29:01.129Z,52.91
2022-09-28T01:31:35.867Z,53.00
2022-09-28T01:34:26.676Z,53.55
2022-09-28T01:37:00.315Z,53.20
2022-09-28T01:39:39.973Z,53.03
2022-09-28T01:42:30.900Z,52.70
2022-09-28T01:45:10.036Z,52.70
2022-09-28T01:47:44.508Z,52.54
2022-09-28T01:50:24.571Z,52.54
2022-09-28T01:53:01.134Z,51.63
2022-09-28T01:55:38.816Z,52.29
2022-09-28T01:58:20.684Z,51.83
2022-09-28T02:00:59.573Z,52.01
2022-09-28T02:03:39.902Z,51.81
2022-09-28T02:06:21.991Z,51.76
2022-09-28T02:08:57.491Z,51.29
2022-09-28T02:11:38.803Z,51.02
2022-09-28T02:14:13.176Z,51.21
2022-09-28T02:16:46.823Z,51.29
2022-09-28T02:19:23.411Z,51.36
2022-09-28T02:22:01.449Z,51.77
2022-09-28T02:25:11.997Z,51.72
2022-09-28T02:28:01.659Z,51.08
2022-09-28T02:30:37.087Z,51.62
2022-09-28T02:33:28.707Z,50.97
2022-09-28T02:36:01.722Z,50.92
2022-09-28T02:38:34.498Z,51.60
2022-09-28T02:41:33.958Z,51.32
2022-09-28T02:44:25.400Z,51.13
2022-09-28T02:47:05.494Z,50.97
2022-09-28T02:49:47.874Z,50.71
2022-09-28T02:52:27.239Z,51.00
2022-09-28T02:55:15.861Z,50.84
2022-09-28T02:58:11.992Z,50.03
2022-09-28T03:01:05.037Z,50.51
2022-09-28T03:03:44.693Z,50.04
2022-09-28T03:06:22.639Z,50.27
2022-09-28T03:09:16.396Z,49.87
2022-09-28T03:11:55.700Z,49.67
2022-09-28T03:14:25.979Z,49.45
2022-09-28T03:16:59.809Z,49.16
2022-09-28T03:19:34.231Z,49.41
2022-09-28T03:22:04.255Z,49.06
2022-09-28T03:24:33.832Z,48.28
2022-09-28T03:27:07.872Z,48.58
2022-09-28T03:29:39.538Z,48.88
2022-09-28T03:32:10.564Z,48.93
2022-09-28T03:34:43.952Z,49.33
2022-09-28T03:37:13.868Z,48.75
2022-09-28T03:39:44.082Z,48.84
2022-09-28T03:42:14.667Z,49.18
2022-09-28T03:44:49.200Z,48.70
2022-09-28T03:47:21.783Z,49.32
2022-09-28T03:49:52.196Z,49.51
2022-09-28T03:52:22.463Z,49.20
2022-09-28T03:54:52.775Z,49.53
2022-09-28T03:57:22.877Z,49.35
2022-09-28T03:59:52.996Z,49.47
2022-09-28T04:02:23.289Z,49.05
2022-09-28T04:04:54.353Z,48.79
2022-09-28T04:07:28.980Z,49.09
2022-09-28T04:10:01.785Z,48.83
2022-09-28T04:12:32.040Z,48.82
2022-09-28T04:15:02.831Z,48.43
2022-09-28T04:17:37.763Z,48.17
2022-09-28T04:20:18.592Z,48.38
2022-09-28T04:23:02.616Z,48.13
2022-09-28T04:25:33.943Z,48.46
2022-09-28T04:28:22.334Z,48.23
2022-09-28T04:30:53.133Z,48.26
2022-09-28T04:33:23.959Z,48.64
2022-09-28T04:35:54.811Z,48.03
2022-09-28T04:38:48.410Z,47.34
2022-09-28T04:41:15.607Z,48.38
2022-09-28T04:43:48.227Z,47.41
2022-09-28T04:46:18.940Z,47.88
2022-09-28T04:48:56.750Z,48.43
2022-09-28T04:51:59.344Z,48.08
2022-09-28T04:54:30.572Z,47.87
2022-09-28T04:57:01.316Z,46.92
2022-09-28T04:59:32.299Z,47.21
2022-09-28T05:02:03.655Z,47.45
2022-09-28T05:04:52.177Z,47.57
2022-09-28T05:07:38.138Z,47.76
2022-09-28T05:10:10.931Z,46.48
2022-09-28T05:12:42.310Z,47.28
2022-09-28T05:15:13.916Z,47.00
2022-09-28T05:17:45.117Z,47.34
2022-09-28T05:20:48.299Z,47.31
2022-09-28T05:23:19.853Z,47.37
2022-09-28T05:25:56.446Z,47.51
2022-09-28T05:28:31.612Z,46.07
2022-09-28T05:31:37.450Z,46.50
2022-09-28T05:34:07.987Z,46.84
2022-09-28T05:36:41.407Z,45.08
2022-09-28T05:39:11.954Z,45.78
2022-09-28T05:41:42.555Z,45.41
2022-09-28T05:44:12.591Z,46.61
2022-09-28T05:46:43.317Z,45.98
2022-09-28T05:49:15.035Z,45.79
2022-09-28T05:51:45.586Z,47.23
2022-09-28T05:54:18.249Z,46.43
2022-09-28T05:56:52.815Z,45.70
2022-09-28T05:59:24.045Z,47.03
2022-09-28T06:01:54.637Z,48.13
2022-09-28T06:04:25.015Z,45.18
2022-09-28T06:06:55.362Z,47.58
2022-09-28T06:09:26.129Z,47.48
2022-09-28T06:12:13.700Z,46.23
2022-09-28T06:14:48.109Z,47.07
2022-09-28T06:17:19.072Z,46.18
2022-09-28T06:19:56.208Z,43.63
2022-09-28T06:22:29.099Z,45.49
2022-09-28T06:25:08.228Z,48.02
2022-09-28T06:27:40.668Z,46.31
2022-09-28T06:30:11.272Z,46.49
2022-09-28T06:32:43.610Z,45.87
2022-09-28T06:35:16.795Z,46.93
2022-09-28T06:37:48.155Z,46.11
2022-09-28T06:40:22.102Z,45.10
2022-09-28T06:43:04.469Z,46.54
2022-09-28T06:45:55.335Z,47.03
2022-09-28T06:48:46.399Z,46.22
2022-09-28T06:51:24.230Z,44.72
2022-09-28T06:54:10.270Z,44.46
2022-09-28T06:56:51.335Z,46.11
2022-09-28T06:59:23.135Z,44.53
2022-09-28T07:01:54.912Z,46.86
2022-09-28T07:04:46.234Z,44.69
2022-09-28T07:07:36.441Z,45.24
2022-09-28T07:10:32.305Z,44.60
2022-09-28T07:13:48.075Z,44.60
2022-09-28T07:16:14.165Z,45.41
2022-09-28T07:18:46.211Z,44.00
2022-09-28T07:21:27.363Z,44.30
2022-09-28T07:24:02.621Z,44.09
2022-09-28T07:26:43.373Z,44.00
2022-09-28T07:29:22.331Z,45.06
2022-09-28T07:32:13.933Z,45.54
2022-09-28T07:35:18.411Z,43.09
2022-09-28T07:38:00.165Z,44.78
2022-09-28T07:40:49.402Z,45.37
2022-09-28T07:43:27.683Z,43.46
2022-09-28T07:45:57.431Z,43.84
2022-09-28T07:48:27.806Z,44.25
2022-09-28T07:51:16.081Z,43.74
2022-09-28T07:53:59.766Z,45.25
2022-09-28T07:56:55.862Z,44.36
2022-09-28T07:59:41.682Z,44.53
2022-09-28T08:02:33.615Z,44.11
2022-09-28T08:05:04.889Z,43.98
2022-09-28T08:07:35.927Z,44.30
2022-09-28T08:10:08.823Z,44.48
2022-09-28T08:13:06.469Z,44.81
2022-09-28T08:16:05.898Z,44.80
2022-09-28T08:18:52.954Z,44.76
2022-09-28T08:21:44.011Z,44.19
2022-09-28T08:24:16.776Z,43.51
2022-09-28T08:26:48.488Z,43.69
2022-09-28T08:29:20.683Z,43.29
2022-09-28T08:31:55.520Z,43.31
2022-09-28T08:34:43.277Z,43.80
2022-09-28T08:37:31.650Z,42.58
2022-09-28T08:40:28.727Z,43.30
2022-09-28T08:43:35.040Z,43.56
2022-09-28T08:46:38.975Z,42.94
2022-09-28T08:49:39.883Z,43.50
2022-09-28T08:52:39.040Z,43.49
2022-09-28T08:55:46.786Z,43.11
2022-09-28T08:58:29.687Z,43.15
2022-09-28T09:01:00.965Z,42.98
2022-09-28T09:03:37.904Z,44.27
2022-09-28T09:06:29.406Z,44.36
2022-09-28T09:09:35.255Z,45.39
2022-09-28T09:12:10.984Z,45.21
2022-09-28T09:14:51.275Z,45.64
2022-09-28T09:17:41.835Z,45.77
2022-09-28T09:20:33.333Z,45.69
2022-09-28T09:23:40.410Z,46.15
2022-09-28T09:26:25.830Z,45.84
2022-09-28T09:28:56.720Z,46.27
2022-09-28T09:31:40.351Z,46.39
2022-09-28T09:34:45.803Z,46.51
2022-09-28T09:37:59.297Z,46.44
2022-09-28T09:41:09.543Z,46.73
2022-09-28T09:44:33.889Z,46.34
2022-09-28T09:47:41.709Z,46.48
2022-09-28T09:50:51.382Z,46.45
2022-09-28T09:53:31.959Z,46.14
2022-09-28T09:56:31.370Z,46.08
2022-09-28T09:59:29.589Z,46.34
2022-09-28T10:02:26.534Z,47.05
2022-09-28T10:05:29.247Z,46.92
2022-09-28T10:08:13.993Z,46.83
2022-09-28T10:11:09.946Z,47.44
2022-09-28T10:13:44.943Z,48.12
2022-09-28T10:16:35.340Z,47.19
2022-09-28T10:19:13.381Z,47.04
2022-09-28T10:22:06.686Z,48.72
2022-09-28T10:24:49.152Z,48.09
2022-09-28T10:27:25.861Z,48.70
2022-09-28T10:30:13.640Z,47.59
2022-09-28T10:32:46.229Z,47.73
2022-09-28T10:35:22.869Z,47.81
2022-09-28T10:38:21.281Z,47.51
2022-09-28T10:40:57.512Z,47.87
2022-09-28T10:44:07.533Z,47.69
2022-09-28T10:46:43.181Z,47.68
2022-09-28T10:49:23.423Z,47.54
2022-09-28T10:51:58.606Z,47.42
2022-09-28T10:54:34.381Z,47.51
2022-09-28T10:57:05.056Z,47.75
2022-09-28T10:59:57.013Z,47.72
2022-09-28T11:02:36.270Z,48.05
2022-09-28T11:05:24.541Z,47.57
2022-09-28T11:08:01.989Z,48.17
2022-09-28T11:10:41.732Z,48.25
2022-09-28T11:13:16.912Z,48.38
2022-09-28T11:15:57.285Z,48.30
2022-09-28T11:18:35.818Z,48.40
2022-09-28T11:21:17.695Z,48.70
2022-09-28T11:24:25.975Z,48.29
2022-09-28T11:27:01.377Z,48.87
2022-09-28T11:29:41.186Z,48.34
2022-09-28T11:32:27.179Z,49.31
2022-09-28T11:35:50.629Z,48.72
2022-09-28T11:38:24.717Z,48.80
2022-09-28T11:41:35.585Z,48.04
2022-09-28T11:44:47.586Z,48.25
2022-09-28T11:47:42.544Z,48.49
2022-09-28T11:50:21.330Z,48.99
2022-09-28T11:53:06.900Z,48.45
2022-09-28T11:55:44.050Z,48.64
2022-09-28T11:58:26.338Z,48.19
2022-09-28T12:01:23.342Z,48.07
2022-09-28T12:04:32.556Z,48.46
2022-09-28T12:07:16.598Z,49.04
2022-09-28T12:09:59.800Z,48.36
2022-09-28T12:13:04.364Z,48.21
2022-09-28T12:16:45.325Z,49.45
2022-09-28T12:19:09.756Z,49.08
2022-09-28T12:21:53.509Z,48.72
2022-09-28T12:24:29.588Z,48.54
2022-09-28T12:27:44.872Z,48.26
2022-09-28T12:30:24.018Z,47.83
2022-09-28T12:33:00.008Z,48.26
2022-09-28T12:35:29.495Z,48.31
2022-09-28T12:38:40.727Z,48.16
2022-09-28T12:41:25.688Z,48.05
2022-09-28T12:43:58.205Z,48.64
2022-09-28T12:46:54.999Z,48.87
2022-09-28T12:53:33.143Z,48.31
2022-09-28T12:56:08.041Z,48.05
2022-09-28T12:59:05.240Z,48.33
2022-09-28T13:01:54.035Z,48.44
2022-09-28T13:04:42.322Z,48.78
2022-09-28T13:07:19.718Z,48.71
2022-09-28T13:10:08.053Z,49.94
2022-09-28T13:13:08.180Z,48.88
2022-09-28T13:15:44.291Z,49.01
2022-09-28T13:18:14.793Z,49.65
2022-09-28T13:20:57.113Z,48.98
2022-09-28T13:23:37.836Z,48.99
2022-09-28T13:26:33.385Z,48.55
2022-09-28T13:29:14.709Z,49.74
2022-09-28T13:32:01.579Z,48.97
2022-09-28T13:34:35.794Z,49.84
2022-09-28T13:37:23.522Z,49.28
2022-09-28T13:40:00.620Z,49.65
2022-09-28T13:42:49.216Z,49.81
2022-09-28T13:45:25.521Z,49.85
2022-09-28T13:48:38.293Z,49.41
2022-09-28T13:51:14.347Z,51.26
2022-09-28T13:54:09.368Z,50.00
2022-09-28T13:57:03.451Z,49.97
2022-09-28T13:59:36.556Z,51.55
2022-09-28T14:02:27.197Z,51.70
2022-09-28T14:05:27.525Z,50.43
2022-09-28T14:08:28.569Z,50.44
2022-09-28T14:11:20.654Z,50.90
2022-09-28T14:14:01.137Z,51.30
2022-09-28T14:16:35.149Z,51.50
2022-09-28T14:19:12.226Z,50.33
2022-09-28T14:21:57.843Z,50.26
2022-09-28T14:24:57.708Z,50.66
2022-09-28T14:27:39.903Z,50.85
2022-09-28T14:30:25.500Z,50.86
2022-09-28T14:33:01.680Z,52.05
2022-09-28T14:35:51.532Z,51.63
2022-09-28T14:38:43.647Z,52.21
2022-09-28T14:41:38.476Z,51.03
2022-09-28T14:44:20.240Z,50.79
2022-09-28T14:46:52.404Z,51.91
2022-09-28T14:49:24.692Z,52.04
2022-09-28T14:51:58.283Z,51.32
2022-09-28T14:54:42.828Z,50.95
2022-09-28T14:57:25.018Z,50.89
2022-09-28T15:00:01.006Z,51.40
2022-09-28T15:02:41.651Z,51.13
2022-09-28T15:05:20.261Z,51.36
2022-09-28T15:07:56.736Z,51.95
2022-09-28T15:10:43.284Z,51.34
2022-09-28T15:13:25.410Z,50.63
2022-09-28T15:16:17.529Z,50.68
2022-09-28T15:18:48.145Z,52.11
2022-09-28T15:21:20.134Z,52.04
2022-09-28T15:23:51.275Z,52.29
2022-09-28T15:26:33.118Z,51.85
2022-09-28T15:29:06.791Z,52.59
2022-09-28T15:31:38.289Z,52.24
2022-09-28T15:34:53.234Z,51.23
2022-09-28T15:37:40.560Z,51.39
2022-09-28T15:40:18.219Z,50.63
2022-09-28T15:42:48.863Z,51.21
2022-09-28T15:45:32.034Z,50.53
2022-09-28T15:48:26.551Z,50.42
2022-09-28T15:51:13.113Z,50.77
2022-09-28T15:53:59.948Z,50.46
2022-09-28T15:56:31.303Z,50.42
2022-09-28T15:59:20.407Z,50.09
2022-09-28T16:01:51.041Z,50.61
2022-09-28T16:05:03.379Z,50.39
2022-09-28T16:07:55.837Z,50.72
2022-09-28T16:10:27.103Z,51.23
2022-09-28T16:13:11.732Z,50.04
2022-09-28T16:15:43.326Z,51.10
2022-09-28T16:18:26.829Z,51.33
2022-09-28T16:21:20.974Z,51.52
2022-09-28T16:23:59.850Z,51.52
2022-09-28T16:26:43.603Z,51.29
2022-09-28T16:29:42.578Z,51.31
2022-09-28T16:32:28.728Z,51.21
2022-09-28T16:35:23.013Z,50.79
2022-09-28T16:38:07.317Z,51.02
2022-09-28T16:40:44.281Z,51.98
2022-09-28T16:43:32.378Z,51.71
2022-09-28T16:46:10.682Z,52.30
2022-09-28T16:48:52.749Z,52.29
2022-09-28T16:51:24.570Z,52.99
2022-09-28T16:54:12.542Z,53.37
2022-09-28T16:56:42.781Z,53.34
2022-09-28T16:59:14.025Z,53.61
2022-09-28T17:01:49.064Z,53.52
2022-09-28T17:04:20.024Z,53.69
2022-09-28T17:06:51.334Z,53.67
2022-09-28T17:09:23.684Z,53.29
2022-09-28T17:11:58.176Z,53.54
2022-09-28T17:14:28.835Z,53.89
2022-09-28T17:17:08.878Z,53.74
2022-09-28T17:19:40.703Z,53.90
2022-09-28T17:22:15.368Z,53.73
2022-09-28T17:24:47.368Z,54.06
2022-09-28T17:27:22.354Z,53.76
2022-09-28T17:29:52.720Z,54.21
2022-09-28T17:32:22.920Z,54.60
2022-09-28T17:35:06.613Z,54.52
2022-09-28T17:37:45.095Z,54.28
2022-09-28T17:40:26.539Z,54.50
2022-09-28T17:43:02.226Z,54.06
2022-09-28T17:45:35.401Z,54.71
2022-09-28T17:48:05.538Z,54.46
2022-09-28T17:50:37.572Z,54.46
2022-09-28T17:53:08.431Z,54.92
2022-09-28T17:55:40.712Z,54.36
2022-09-28T17:58:18.909Z,53.62
2022-09-28T18:00:54.981Z,54.79
2022-09-28T18:03:27.524Z,54.63
2022-09-28T18:06:05.395Z,53.65
2022-09-28T18:08:36.982Z,54.82
2022-09-28T18:11:09.531Z,55.14
2022-09-28T18:13:40.791Z,55.12
2022-09-28T18:16:11.030Z,55.07
2022-09-28T18:18:41.606Z,55.09
2022-09-28T18:21:11.535Z,55.18
2022-09-28T18:23:41.588Z,55.16
2022-09-28T18:26:15.990Z,54.21
2022-09-28T18:28:46.084Z,55.26
2022-09-28T18:31:20.272Z,54.87
2022-09-28T18:36:37.774Z,55.52
2022-09-28T18:39:07.620Z,55.29
2022-09-28T18:41:37.454Z,55.84
2022-09-28T18:44:07.252Z,55.91
2022-09-28T18:46:37.856Z,55.61
2022-09-28T18:49:08.030Z,55.54
2022-09-28T18:51:38.082Z,55.75
2022-09-28T18:54:08.901Z,55.83
2022-09-28T18:56:43.247Z,55.66
2022-09-28T18:59:13.637Z,56.24
2022-09-28T19:01:44.669Z,55.68
2022-09-28T19:04:15.341Z,55.15
2022-09-28T19:06:47.103Z,55.57
2022-09-28T19:09:16.781Z,56.13
2022-09-28T19:11:46.886Z,55.99
2022-09-28T19:14:18.182Z,55.81
2022-09-28T19:16:48.936Z,56.18
2022-09-28T19:19:23.413Z,55.96
2022-09-28T19:21:55.015Z,55.75
2022-09-28T19:24:28.543Z,54.46
2022-09-28T19:26:58.994Z,55.66
2022-09-28T19:29:29.736Z,55.83
2022-09-28T19:31:59.906Z,55.25
2022-09-28T19:34:31.425Z,55.42
2022-09-28T19:37:05.064Z,55.81
2022-09-28T19:39:35.811Z,56.04
2022-09-28T19:42:05.145Z,56.15
2022-09-28T19:44:37.095Z,55.96
2022-09-28T19:47:10.234Z,55.64
2022-09-28T19:49:42.687Z,56.14
2022-09-28T19:52:17.715Z,55.49
2022-09-28T19:54:58.788Z,55.83
2022-09-28T19:57:31.723Z,56.55
2022-09-28T20:00:03.874Z,56.85
2022-09-28T20:02:37.486Z,56.19
2022-09-28T20:05:07.874Z,55.78
2022-09-28T20:07:38.108Z,56.26
2022-09-28T20:10:08.978Z,56.88
2022-09-28T20:12:42.431Z,56.52
2022-09-28T20:15:12.874Z,55.74
2022-09-28T20:17:43.217Z,55.35
2022-09-28T20:20:13.438Z,56.09
2022-09-28T20:22:45.099Z,55.66
2022-09-28T20:25:15.429Z,56.26
2022-09-28T20:27:45.563Z,55.61
2022-09-28T20:30:16.075Z,55.52
2022-09-28T20:32:49.367Z,56.39
2022-09-28T20:35:32.237Z,56.28
2022-09-28T20:38:09.312Z,56.37
2022-09-28T20:40:42.192Z,56.94
2022-09-28T20:43:12.276Z,55.87
2022-09-28T20:45:42.315Z,57.14
2022-09-28T20:48:12.267Z,56.26
2022-09-28T20:50:43.923Z,56.95
2022-09-28T20:53:13.926Z,56.83
2022-09-28T20:55:45.698Z,56.62
2022-09-28T20:58:15.646Z,56.76
2022-09-28T21:00:45.053Z,56.01
2022-09-28T21:03:14.387Z,55.01
2022-09-28T21:05:44.529Z,56.14
2022-09-28T21:08:15.508Z,56.34
2022-09-28T21:10:46.317Z,56.71
2022-09-28T21:13:16.294Z,56.18
2022-09-28T21:15:46.360Z,56.52
2022-09-28T21:18:16.733Z,57.27
2022-09-28T21:20:48.843Z,56.03
2022-09-28T21:23:24.610Z,55.89
2022-09-28T21:26:13.399Z,55.44
2022-09-28T21:28:45.944Z,56.43
2022-09-28T21:31:16.889Z,56.85
2022-09-28T21:33:47.729Z,57.67
2022-09-28T21:36:18.050Z,57.78
2022-09-28T21:38:49.984Z,57.51
2022-09-28T21:41:20.404Z,59.16
2022-09-28T21:43:50.460Z,58.59
2022-09-28T21:46:20.814Z,57.99
2022-09-28T21:48:58.046Z,57.54
2022-09-28T21:51:28.859Z,57.88
2022-09-28T21:53:59.042Z,56.96
2022-09-28T21:56:30.988Z,57.19
2022-09-28T21:59:02.584Z,56.93
2022-09-28T22:01:33.621Z,57.18
2022-09-28T22:04:04.430Z,58.14
2022-09-28T22:06:35.522Z,56.97
2022-09-28T22:09:06.777Z,57.88
2022-09-28T22:11:37.288Z,57.69
2022-09-28T22:14:07.411Z,56.30
2022-09-28T22:16:37.448Z,57.38
2022-09-28T22:19:07.728Z,58.29
2022-09-28T22:21:39.410Z,57.41
2022-09-28T22:24:10.078Z,57.02
2022-09-28T22:26:41.605Z,56.98
2022-09-28T22:29:12.593Z,56.68
2022-09-28T22:31:43.572Z,57.17
2022-09-28T22:34:13.664Z,56.46
2022-09-28T22:36:43.728Z,57.04
2022-09-28T22:39:13.967Z,56.79
2022-09-28T22:41:44.111Z,56.93
2022-09-28T22:44:14.174Z,56.76
2022-09-28T22:46:44.445Z,56.99
2022-09-28T22:49:15.030Z,57.50
2022-09-28T22:51:45.304Z,56.93
2022-09-28T22:54:18.218Z,56.42
2022-09-28T22:56:48.455Z,58.17
2022-09-28T22:59:18.901Z,57.98
2022-09-28T23:01:49.048Z,57.89
2022-09-28T23:04:21.509Z,58.07
2022-09-28T23:06:51.527Z,56.94
2022-09-28T23:09:21.496Z,57.30
2022-09-28T23:11:53.225Z,57.06
2022-09-28T23:14:26.099Z,57.34
2022-09-28T23:16:56.267Z,57.04
2022-09-28T23:19:27.922Z,57.18
2022-09-28T23:22:00.489Z,56.83
2022-09-28T23:24:30.586Z,56.83
2022-09-28T23:27:00.600Z,56.78
2022-09-28T23:29:30.715Z,57.71
2022-09-28T23:32:00.926Z,57.43
2022-09-28T23:34:31.541Z,57.87
2022-09-28T23:37:01.618Z,57.85
2022-09-28T23:39:31.648Z,57.27
2022-09-28T23:42:01.996Z,57.83
2022-09-28T23:44:35.689Z,57.47
2022-09-28T23:47:07.678Z,57.31
2022-09-28T23:49:38.413Z,57.33
2022-09-28T23:52:09.004Z,57.02
2022-09-28T23:54:39.245Z,56.75
2022-09-28T23:57:09.350Z,57.39
2022-09-28T23:59:41.806Z,57.23
